Flight Track Log - Related Links

Times and Time Zones

All times are in EDT time to prevent confusion due to time zone crossing. See the DAL268 flight status page for this flight to view local times or setup timezone preferences in your user account.

Time Position Orientation Groundspeed Altitude Reporting Facility
EDT Latitude Longitude Course Direction KTS MPH feet Rate Location/Type
Wed 02:38:24 PM 37.6244 -122.3690 97° East 162 186 100  Level FlightAware ADS-B
Wed 02:38:29 PM 37.6277 -122.3660 36° Northeast 163 188 300 3,000 Climbing FlightAware ADS-B
Wed 02:38:32 PM 37.6295 -122.3650 24° Northeast 165 190 500 3,000 Climbing FlightAware ADS-B
Wed 02:38:35 PM 37.6311 -122.3630 45° Northeast 166 191 600 2,250 Climbing FlightAware ADS-B
Wed 02:38:40 PM 37.6335 -122.3590 53° Northeast 165 190 800 2,824 Climbing FlightAware ADS-B
Wed 02:38:52 PM 37.6396 -122.3500 49° Northeast 165 190 1,400 2,609 Climbing FlightAware ADS-B
Wed 02:39:03 PM 37.6458 -122.3420 46° Northeast 168 193 1,800 2,444 Climbing FlightAware ADS-B
Wed 02:39:19 PM 37.6542 -122.3310 46° Northeast 170 196 2,500 2,250 Climbing FlightAware ADS-B
Wed 02:39:35 PM 37.6629 -122.3190 48° Northeast 176 203 3,000 1,500 Climbing FlightAware ADS-B
Wed 02:39:47 PM 37.6701 -122.3100 45° Northeast 192 221 3,200 1,200 Climbing FlightAware ADS-B
Wed 02:40:05 PM 37.6815 -122.2940 48° Northeast 218 251 3,600 1,500 Climbing FlightAware ADS-B
Wed 02:40:23 PM 37.6945 -122.2770 46° Northeast 238 274 4,100 1,636 Climbing FlightAware ADS-B
Wed 02:40:38 PM 37.7066 -122.2600 48° Northeast 259 298 4,500 1,742 Climbing FlightAware ADS-B
Wed 02:40:54 PM 37.7200 -122.2420 47° Northeast 274 315 5,000 2,438 Climbing FlightAware ADS-B
Wed 02:41:10 PM 37.7336 -122.2240 46° Northeast 277 319 5,800 3,316 Climbing FlightAware ADS-B
Wed 02:41:32 PM 37.7520 -122.1950 51° Northeast 275 316 7,100 3,353 Climbing FlightAware ADS-B
Wed 02:41:44 PM 37.7582 -122.1780 65° Northeast 276 318 7,700 3,000 Climbing FlightAware ADS-B
Wed 02:42:00 PM 37.7653 -122.1530 70° East 282 325 8,500 2,813 Climbing FlightAware ADS-B
Wed 02:42:16 PM 37.7726 -122.1290 69° East 284 327 9,200 2,710 Climbing FlightAware ADS-B
Wed 02:42:31 PM 37.7797 -122.1060 69° East 288 331 9,900 2,087 Climbing FlightAware ADS-B
Wed 02:43:02 PM 37.7942 -122.0550 70° East 311 358 10,800 1,377 Climbing FlightAware ADS-B
Wed 02:43:32 PM 37.8092 -121.9990 71° East 347 399 11,300 1,238 Climbing FlightAware ADS-B
Wed 02:44:05 PM 37.8271 -121.9330 71° East 373 429 12,100 1,853 Climbing FlightAware ADS-B
Wed 02:44:40 PM 37.8467 -121.8610 71° East 385 443 13,400 2,123 Climbing FlightAware ADS-B
Wed 02:45:10 PM 37.8645 -121.7950 71° East 396 456 14,400 2,200 Climbing FlightAware ADS-B
Wed 02:45:40 PM 37.8823 -121.7280 71° East 403 464 15,600 2,164 Climbing FlightAware ADS-B
Wed 02:46:11 PM 37.9003 -121.6600 71° East 412 474 16,600 2,066 Climbing FlightAware ADS-B
Wed 02:46:41 PM 37.9140 -121.5880 76° East 420 483 17,700 2,032 Climbing FlightAware ADS-B
Wed 02:47:13 PM 37.9268 -121.5110 78° East 426 490 18,700 1,931 Climbing FlightAware ADS-B
Wed 02:48:08 PM 37.9510 -121.3770 77° East 435 501 20,500 1,909 Climbing FlightAware ADS-B
Wed 02:48:41 PM 37.9670 -121.2930 76° East 442 509 21,500 1,726 Climbing FlightAware ADS-B
Wed 02:49:21 PM 37.9860 -121.1910 77° East 451 519 22,600 1,583 Climbing FlightAware ADS-B
Wed 02:49:53 PM 38.0020 -121.1080 76° East 457 526 23,400 1,412 Climbing FlightAware ADS-B
Wed 02:50:29 PM 38.0180 -121.0190 77° East 465 535 24,200 1,371 Climbing FlightAware ADS-B
Wed 02:51:03 PM 38.0350 -120.9240 77° East 472 543 25,000 1,371 Climbing FlightAware ADS-B
Wed 02:51:39 PM 38.0520 -120.8250 78° East 480 552 25,800 1,324 Climbing FlightAware ADS-B
Wed 02:52:11 PM 38.0670 -120.7390 77° East 485 558 26,500 1,235 Climbing FlightAware ADS-B
Wed 02:52:47 PM 38.0840 -120.6410 78° East 491 565 27,200 1,250 Climbing FlightAware ADS-B
Wed 02:53:23 PM 38.1020 -120.5380 77° East 496 571 28,000 1,250 Climbing FlightAware ADS-B
Wed 02:53:59 PM 38.1200 -120.4320 78° East 500 575 28,700 1,417 Climbing FlightAware ADS-B
Wed 02:54:35 PM 38.1360 -120.3340 78° East 496 571 29,700 1,588 Climbing FlightAware ADS-B
Wed 02:55:07 PM 38.1520 -120.2400 78° East 494 568 30,500 1,545 Climbing FlightAware ADS-B
Wed 02:55:41 PM 38.1690 -120.1420 78° East 492 566 31,400 1,500 Climbing FlightAware ADS-B
Wed 02:55:51 PM 38.1723 -120.1224 78° East 493 567 31,600 1,352 Climbing FlightAware ADS-B
Wed 02:56:52 PM 38.2020 -119.9430 78° East 488 562 33,000 1,333 Climbing FlightAware ADS-B
Wed 02:57:30 PM 38.2200 -119.8380 78° East 486 559 33,800 1,217 Climbing FlightAware ADS-B
Wed 02:58:01 PM 38.2342 -119.7497 78° East 486 559 34,400 1,059 Climbing FlightAware ADS-B
Wed 02:58:38 PM 38.2510 -119.6460 78° East 486 559 35,000 500 Climbing FlightAware ADS-B
Wed 02:59:13 PM 38.2670 -119.5500 78° East 486 559 35,000  Level FlightAware ADS-B
Wed 02:59:44 PM 38.2687 -119.5381 80° East 488 562 35,000  Level FlightAware ADS-B
Wed 03:00:25 PM 38.3000 -119.3460 78° East 488 562 35,000  Level FlightAware ADS-B
Wed 03:00:40 PM 38.3064 -119.3042 79° East 491 565 35,000  Level FlightAware ADS-B
Wed 03:01:33 PM 38.3304 -119.1537 78° East 492 566 35,000  Level FlightAware ADS-B
Wed 03:02:04 PM 38.3442 -119.0661 79° East 493 567 35,000  Level FlightAware ADS-B
Wed 03:02:34 PM 38.3573 -118.9832 79° East 492 566 35,000  Level FlightAware ADS-B
Wed 03:03:07 PM 38.3723 -118.8874 79° East 492 566 35,000  Level FlightAware ADS-B
Wed 03:03:55 PM 38.3920 -118.7660 78° East 491 565 35,000  Level FlightAware ADS-B
Wed 03:04:33 PM 38.4070 -118.6750 78° East 491 565 35,000  Level FlightAware ADS-B
Wed 03:05:33 PM 38.4360 -118.4750 79° East 488 562 35,000  Level FlightAware ADS-B
Wed 03:06:03 PM 38.4490 -118.3890 79° East 488 562 35,000  Level FlightAware ADS-B
Wed 03:06:40 PM 38.4650 -118.2850 79° East 487 560 35,000  Level FlightAware ADS-B
Wed 03:07:14 PM 38.4790 -118.1900 79° East 487 560 35,000  Level FlightAware ADS-B
Wed 03:07:47 PM 38.4930 -118.0960 79° East 486 559 35,000  Level FlightAware ADS-B
Wed 03:08:24 PM 38.5080 -117.9960 79° East 485 558 35,000  Level FlightAware ADS-B
Wed 03:09:01 PM 38.5220 -117.9070 79° East 485 558 35,000  Level FlightAware ADS-B
Wed 03:09:38 PM 38.5350 -117.8180 79° East 485 558 35,000  Level FlightAware ADS-B
Wed 03:10:15 PM 38.5480 -117.7300 79° East 485 558 35,000  Level FlightAware ADS-B
Wed 03:10:51 PM 38.5620 -117.6440 78° East 485 558 35,000  Level FlightAware ADS-B
Wed 03:11:31 PM 38.5760 -117.5480 79° East 485 558 35,000  Level FlightAware ADS-B
Wed 03:12:07 PM 38.5890 -117.4620 79° East 485 558 35,000  Level FlightAware ADS-B
Wed 03:12:43 PM 38.6020 -117.3750 79° East 485 558 35,000  Level FlightAware ADS-B
Wed 03:13:19 PM 38.6150 -117.2890 79° East 485 558 35,000  Level FlightAware ADS-B
Wed 03:13:55 PM 38.6280 -117.2030 79° East 485 558 35,000  Level FlightAware ADS-B
Wed 03:14:32 PM 38.6420 -117.1140 79° East 485 558 35,000  Level FlightAware ADS-B
Wed 03:15:09 PM 38.6550 -117.0260 79° East 485 558 35,000  Level FlightAware ADS-B
Wed 03:15:45 PM 38.6680 -116.9390 79° East 485 558 35,000  Level FlightAware ADS-B
Wed 03:16:21 PM 38.6820 -116.8530 78° East 485 558 35,000  Level FlightAware ADS-B
Wed 03:16:58 PM 38.6950 -116.7640 79° East 485 558 35,000  Level FlightAware ADS-B
Wed 03:17:34 PM 38.7080 -116.6780 79° East 485 558 35,000  Level FlightAware ADS-B
Wed 03:18:10 PM 38.7210 -116.5910 79° East 485 558 35,000  Level FlightAware ADS-B
Wed 03:19:03 PM 38.7564 -116.2092 79° East 488 562 35,000  Level Oakland Center
Wed 03:20:04 PM 38.7783 -116.0392 81° East 485 558 35,000  Level Oakland Center
Wed 03:21:27 PM 38.8100 -115.8014 80° East 484 557 35,000  Level Salt Lake Center
Wed 03:22:29 PM 38.8317 -115.6292 81° East 488 562 35,000  Level Salt Lake Center
Wed 03:23:31 PM 38.8531 -115.4569 81° East 487 560 35,000  Level Salt Lake Center
Wed 03:24:33 PM 38.8756 -115.2858 80° East 486 559 35,000  Level Salt Lake Center
Wed 03:25:35 PM 38.8969 -115.1139 81° East 488 562 35,000  Level Salt Lake Center
Wed 03:31:55 PM 39.0265 -114.0067 81° East 479 551 35,000  Level FlightAware ADS-B
Wed 03:33:25 PM 39.0549 -113.7499 82° East 479 551 35,000  Level FlightAware ADS-B
Wed 03:34:17 PM 39.0709 -113.6033 82° East 479 551 35,000  Level FlightAware ADS-B
Wed 03:34:59 PM 39.0838 -113.4841 82° East 480 552 35,000  Level FlightAware ADS-B
Wed 03:35:31 PM 39.0930 -113.3990 82° East 479 551 35,000  Level FlightAware ADS-B
Wed 03:36:07 PM 39.1040 -113.2990 82° East 479 551 35,000  Level FlightAware ADS-B
Wed 03:36:40 PM 39.1139 -113.2002 83° East 479 551 35,000  Level FlightAware ADS-B
Wed 03:37:12 PM 39.1234 -113.1096 82° East 480 552 35,000  Level FlightAware ADS-B
Wed 03:37:52 PM 39.1350 -113.0020 82° East 480 552 35,000  Level FlightAware ADS-B
Wed 03:38:24 PM 39.1442 -112.9080 83° East 480 552 35,000  Level FlightAware ADS-B
Wed 03:38:34 PM 39.1468 -112.8824 83° East 480 552 35,000  Level FlightAware ADS-B
Wed 03:38:54 PM 39.1528 -112.8230 83° East 480 552 35,000  Level FlightAware ADS-B
Wed 03:39:32 PM 39.1637 -112.7150 83° East 480 552 35,000  Level FlightAware ADS-B
Wed 03:40:03 PM 39.1726 -112.6270 83° East 481 554 35,000  Level FlightAware ADS-B
Wed 03:40:16 PM 39.1764 -112.5888 83° East 481 554 35,000  Level FlightAware ADS-B
Wed 03:40:34 PM 39.1812 -112.5400 83° East 481 554 35,000  Level FlightAware ADS-B
Wed 03:41:04 PM 39.1897 -112.4540 83° East 481 554 35,000  Level FlightAware ADS-B
Wed 03:41:19 PM 39.1938 -112.4122 83° East 481 554 35,000  Level FlightAware ADS-B
Wed 03:41:34 PM 39.1981 -112.3680 83° East 481 554 35,000  Level FlightAware ADS-B
Wed 03:42:05 PM 39.2064 -112.2820 83° East 480 552 35,000  Level FlightAware ADS-B
Wed 03:42:33 PM 39.2141 -112.2018 83° East 480 552 35,000  Level FlightAware ADS-B
Wed 03:42:35 PM 39.2148 -112.1950 83° East 480 552 35,000  Level FlightAware ADS-B
Wed 03:43:11 PM 39.2245 -112.0940 83° East 480 552 35,000  Level FlightAware ADS-B
Wed 03:43:26 PM 39.2281 -112.0559 83° East 480 552 35,000  Level FlightAware ADS-B
Wed 03:43:41 PM 39.2326 -112.0080 83° East 480 552 35,000  Level FlightAware ADS-B
Wed 03:44:12 PM 39.2408 -111.9210 83° East 478 550 35,000  Level FlightAware ADS-B
Wed 03:44:18 PM 39.2421 -111.9071 83° East 478 550 35,000  Level FlightAware ADS-B
Wed 03:44:45 PM 39.2494 -111.8280 83° East 478 550 35,000  Level FlightAware ADS-B
Wed 03:44:48 PM 39.2500 -111.8218 83° East 478 550 35,000  Level FlightAware ADS-B
Wed 03:45:15 PM 39.2573 -111.7430 83° East 477 549 35,000  Level FlightAware ADS-B
Wed 03:45:22 PM 39.2586 -111.7283 83° East 478 550 35,000  Level FlightAware ADS-B
Wed 03:45:46 PM 39.2651 -111.6570 83° East 478 550 35,000  Level FlightAware ADS-B
Wed 03:46:16 PM 39.2728 -111.5720 83° East 478 550 35,000  Level FlightAware ADS-B
Wed 03:46:46 PM 39.2805 -111.4870 83° East 477 549 35,000  Level FlightAware ADS-B
Wed 03:47:20 PM 39.2891 -111.3910 83° East 477 549 35,000  Level FlightAware ADS-B
Wed 03:47:50 PM 39.2967 -111.3050 83° East 477 549 35,000  Level FlightAware ADS-B
Wed 03:48:14 PM 39.3021 -111.2438 84° East 476 548 35,000  Level FlightAware ADS-B
Wed 03:48:21 PM 39.3043 -111.2180 84° East 476 548 35,000  Level FlightAware ADS-B
Wed 03:48:44 PM 39.3098 -111.1554 83° East 476 548 35,000  Level FlightAware ADS-B
Wed 03:48:56 PM 39.3129 -111.1200 84° East 476 548 35,000  Level FlightAware ADS-B
Wed 03:49:15 PM 39.3174 -111.0678 84° East 476 548 35,000  Level FlightAware ADS-B
Wed 03:49:45 PM 39.3246 -110.9833 84° East 476 548 35,000  Level FlightAware ADS-B
Wed 03:50:18 PM 39.3324 -110.8911 84° East 476 548 35,000  Level FlightAware ADS-B
Wed 03:50:56 PM 39.3324 -110.8910 93° East 476 548 35,000  Level FlightAware ADS-B
Wed 03:51:30 PM 39.3492 -110.6902 84° East 476 548 35,000  Level FlightAware ADS-B
Wed 03:52:00 PM 39.3564 -110.6025 84° East 477 549 35,000  Level FlightAware ADS-B
Wed 03:52:31 PM 39.3635 -110.5150 84° East 477 549 35,000  Level FlightAware ADS-B
Wed 03:53:10 PM 39.3725 -110.4037 84° East 477 549 35,000  Level FlightAware ADS-B
Wed 03:53:43 PM 39.3800 -110.3094 84° East 477 549 35,000  Level FlightAware ADS-B
Wed 03:54:14 PM 39.3867 -110.2257 84° East 477 549 35,000  Level FlightAware ADS-B
Wed 03:54:45 PM 39.3938 -110.1351 84° East 477 549 35,000  Level FlightAware ADS-B
Wed 03:55:20 PM 39.4014 -110.0358 84° East 478 550 35,000  Level FlightAware ADS-B
Wed 03:55:50 PM 39.4077 -109.9534 84° East 479 551 35,000  Level FlightAware ADS-B
Wed 03:56:20 PM 39.4139 -109.8713 84° East 478 550 35,000  Level FlightAware ADS-B
Wed 03:56:53 PM 39.4211 -109.7742 84° East 478 550 35,000  Level FlightAware ADS-B
Wed 03:57:23 PM 39.4275 -109.6886 84° East 477 549 35,000  Level FlightAware ADS-B
Wed 03:57:53 PM 39.4339 -109.6027 84° East 475 547 35,000  Level FlightAware ADS-B
Wed 03:58:23 PM 39.4400 -109.5186 85° East 475 547 35,000  Level FlightAware ADS-B (KGUC)
Wed 03:58:58 PM 39.4465 -109.4288 85° East 473 544 35,000  Level FlightAware ADS-B (KGUC)
Wed 03:59:30 PM 39.4535 -109.3301 85° East 473 544 35,000  Level FlightAware ADS-B (KGUC)
Wed 04:00:02 PM 39.4599 -109.2396 85° East 473 544 35,000  Level FlightAware ADS-B (KGUC)
Wed 04:00:34 PM 39.4660 -109.1517 85° East 473 544 35,000  Level FlightAware ADS-B
Wed 04:01:04 PM 39.4720 -109.0650 85° East 472 543 35,000  Level FlightAware ADS-B
Wed 04:01:35 PM 39.4778 -108.9785 85° East 471 542 35,000  Level FlightAware ADS-B
Wed 04:02:05 PM 39.4835 -108.8951 85° East 470 541 35,000  Level FlightAware ADS-B
Wed 04:02:38 PM 39.4897 -108.8014 85° East 470 541 35,000  Level FlightAware ADS-B
Wed 04:03:08 PM 39.4951 -108.7189 85° East 471 542 35,000  Level FlightAware ADS-B
Wed 04:03:38 PM 39.5005 -108.6354 85° East 472 543 35,000  Level FlightAware ADS-B
Wed 04:04:19 PM 39.5078 -108.5215 85° East 471 542 35,000  Level FlightAware ADS-B
Wed 04:04:52 PM 39.5137 -108.4294 85° East 471 542 35,000  Level FlightAware ADS-B
Wed 04:05:22 PM 39.5189 -108.3445 85° East 471 542 35,000  Level FlightAware ADS-B
Wed 04:05:52 PM 39.5240 -108.2625 85° East 471 542 35,000  Level FlightAware ADS-B
Wed 04:06:22 PM 39.5292 -108.1772 85° East 470 541 35,000  Level FlightAware ADS-B
Wed 04:06:53 PM 39.5346 -108.0881 85° East 470 541 35,000  Level FlightAware ADS-B
Wed 04:07:28 PM 39.5403 -107.9925 86° East 469 540 35,000  Level FlightAware ADS-B
Wed 04:07:58 PM 39.5450 -107.9132 86° East 468 539 35,000  Level FlightAware ADS-B
Wed 04:08:29 PM 39.5504 -107.8186 86° East 468 539 35,000  Level FlightAware ADS-B
Wed 04:08:59 PM 39.5550 -107.7394 86° East 469 540 35,000  Level FlightAware ADS-B
Wed 04:09:31 PM 39.5599 -107.6516 86° East 469 540 35,000  Level FlightAware ADS-B
Wed 04:10:11 PM 39.5664 -107.5354 86° East 469 540 35,000  Level FlightAware ADS-B
Wed 04:10:42 PM 39.5712 -107.4480 86° East 468 539 35,000  Level FlightAware ADS-B
Wed 04:11:12 PM 39.5755 -107.3686 86° East 469 540 35,000  Level FlightAware ADS-B
Wed 04:11:42 PM 39.5800 -107.2814 86° East 468 539 35,000  Level FlightAware ADS-B
Wed 04:12:12 PM 39.5843 -107.1993 86° East 468 539 35,000  Level FlightAware ADS-B
Wed 04:12:44 PM 39.5889 -107.1130 86° East 467 537 35,000  Level FlightAware ADS-B
Wed 04:13:14 PM 39.5934 -107.0253 86° East 466 536 35,000  Level FlightAware ADS-B
Wed 04:13:45 PM 39.5977 -106.9381 86° East 465 535 35,000  Level FlightAware ADS-B
Wed 04:14:16 PM 39.6019 -106.8539 86° East 465 535 35,000  Level FlightAware ADS-B
Wed 04:14:49 PM 39.6064 -106.7635 86° East 465 535 35,000  Level FlightAware ADS-B
Wed 04:15:39 PM 39.6130 -106.6240 86° East 463 533 35,000  Level FlightAware ADS-B
Wed 04:16:13 PM 39.6170 -106.5290 87° East 463 533 35,000  Level FlightAware ADS-B
Wed 04:16:47 PM 39.6220 -106.4340 86° East 463 533 35,000  Level FlightAware ADS-B
Wed 04:17:25 PM 39.6270 -106.3300 86° East 465 535 35,000  Level FlightAware ADS-B
Wed 04:18:01 PM 39.6310 -106.2270 87° East 466 536 35,000  Level FlightAware ADS-B
Wed 04:18:35 PM 39.6350 -106.1350 87° East 468 539 35,000  Level FlightAware ADS-B
Wed 04:19:14 PM 39.6370 -106.0898 87° East 470 541 35,000  Level FlightAware ADS-B (KEIK)
Wed 04:20:19 PM 39.6470 -105.8430 87° East 469 540 35,000  Level FlightAware ADS-B
Wed 04:20:51 PM 39.6510 -105.7520 87° East 468 539 35,000  Level FlightAware ADS-B
Wed 04:21:31 PM 39.6550 -105.6410 87° East 468 539 35,000  Level FlightAware ADS-B
Wed 04:22:05 PM 39.6590 -105.5450 87° East 469 540 35,000  Level FlightAware ADS-B
Wed 04:22:39 PM 39.6620 -105.4510 88° East 468 539 35,000  Level FlightAware ADS-B
Wed 04:23:13 PM 39.6660 -105.3540 87° East 469 540 35,000  Level FlightAware ADS-B
Wed 04:23:41 PM 39.6687 -105.2769 87° East 471 542 35,000  Level FlightAware ADS-B (KEIK)
Wed 04:24:11 PM 39.6714 -105.2010 87° East 471 542 35,000  Level FlightAware ADS-B (KEIK)
Wed 04:24:42 PM 39.6747 -105.1047 87° East 472 543 35,000  Level FlightAware ADS-B (KEIK)
Wed 04:25:13 PM 39.6777 -105.0150 87° East 472 543 35,000  Level FlightAware ADS-B (KEIK)
Wed 04:26:04 PM 39.6823 -104.8747 88° East 473 544 35,000  Level FlightAware ADS-B (KEIK)
Wed 04:26:34 PM 39.6850 -104.7893 88° East 475 547 35,000  Level FlightAware ADS-B (KEIK)
Wed 04:27:05 PM 39.6877 -104.6998 88° East 477 549 35,000  Level FlightAware ADS-B (KEIK)
Wed 04:27:35 PM 39.6950 -104.6137 84° East 478 550 35,000  Level FlightAware ADS-B (KEIK)
Wed 04:28:15 PM 39.7115 -104.5256 76° East 480 552 35,000 79 Level FlightAware ADS-B (KEIK)
Wed 04:28:51 PM 39.7383 -104.4032 74° East 478 550 35,100 424 Climbing FlightAware ADS-B (KEIK)
Wed 04:29:40 PM 39.7680 -104.2690 74° East 476 548 35,600 640 Climbing FlightAware ADS-B
Wed 04:30:06 PM 39.7848 -104.1955 73° East 479 551 35,900 667 Climbing FlightAware ADS-B (KEIK)
Wed 04:30:52 PM 39.8130 -104.0690 74° East 482 555 36,400 632 Climbing FlightAware ADS-B
Wed 04:31:22 PM 39.8310 -103.9840 75° East 486 559 36,700 529 Climbing FlightAware ADS-B
Wed 04:32:00 PM 39.8540 -103.8790 74° East 489 563 37,000 243 Climbing FlightAware ADS-B
Wed 04:32:36 PM 39.8770 -103.7770 74° East 488 562 37,000  Level FlightAware ADS-B
Wed 04:33:10 PM 39.8970 -103.6810 75° East 489 563 37,000  Level FlightAware ADS-B
Wed 04:33:44 PM 39.9180 -103.5830 74° East 491 565 37,000  Level FlightAware ADS-B
Wed 04:34:20 PM 39.9400 -103.4820 74° East 490 564 37,000  Level FlightAware ADS-B
Wed 04:34:51 PM 39.9559 -103.4069 75° East 491 565 37,000  Level FlightAware ADS-B (KEIK)
Wed 04:35:31 PM 39.9826 -103.2810 74° East 491 565 37,000  Level FlightAware ADS-B (KEIK)
Wed 04:36:06 PM 40.0040 -103.1800 75° East 490 564 37,000  Level FlightAware ADS-B
Wed 04:36:28 PM 40.0160 -103.1227 75° East 489 563 37,000  Level FlightAware ADS-B (KEIK)
Wed 04:37:00 PM 40.0356 -103.0292 75° East 490 564 37,000  Level FlightAware ADS-B (KEIK)
Wed 04:38:06 PM 40.0730 -102.8510 75° East 489 563 37,000  Level FlightAware ADS-B
Wed 04:38:43 PM 40.0930 -102.7620 74° East 489 563 37,000  Level FlightAware ADS-B
Wed 04:39:20 PM 40.1130 -102.6720 74° East 489 563 37,000  Level FlightAware ADS-B
Wed 04:39:57 PM 40.1320 -102.5830 74° East 489 563 37,000  Level FlightAware ADS-B
Wed 04:40:33 PM 40.1510 -102.4960 74° East 489 563 37,000  Level FlightAware ADS-B
Wed 04:41:10 PM 40.1710 -102.4060 74° East 489 563 37,000  Level FlightAware ADS-B
Wed 04:41:56 PM 40.1950 -102.2950 74° East 489 563 37,000  Level FlightAware ADS-B
Wed 04:42:33 PM 40.2150 -102.2050 74° East 489 563 37,000  Level FlightAware ADS-B
Wed 04:43:10 PM 40.2340 -102.1160 74° East 489 563 37,000  Level FlightAware ADS-B
Wed 04:43:45 PM 40.2530 -102.0310 74° East 489 563 37,000  Level FlightAware ADS-B
Wed 04:44:22 PM 40.2730 -101.9410 74° East 489 563 37,000  Level FlightAware ADS-B
Wed 04:44:58 PM 40.2920 -101.8540 74° East 489 563 37,000  Level FlightAware ADS-B
Wed 04:45:32 PM 40.3100 -101.7720 74° East 489 563 37,000  Level FlightAware ADS-B
Wed 04:46:08 PM 40.3290 -101.6850 74° East 489 563 37,000  Level FlightAware ADS-B
Wed 04:46:45 PM 40.3480 -101.5950 74° East 489 563 37,000  Level FlightAware ADS-B
Wed 04:47:23 PM 40.3680 -101.5030 74° East 489 563 37,000  Level FlightAware ADS-B
Wed 04:47:56 PM 40.4119 -101.1464 74° East 501 577 37,000  Level Denver Center
Wed 04:48:58 PM 40.4500 -100.9481 76° East 504 580 37,000  Level Denver Center
Wed 04:50:01 PM 40.5047 -100.7867 66° East 513 590 37,000  Level Denver Center
Wed 04:51:03 PM 40.5725 -100.6031 64° Northeast 506 582 37,000  Level Denver Center
Wed 04:52:05 PM 40.6308 -100.4469 64° Northeast 504 580 37,000  Level Denver Center
Wed 04:53:07 PM 40.6986 -100.2622 64° Northeast 505 581 37,000  Level Denver Center
Wed 04:54:09 PM 40.7558 -100.1053 64° Northeast 500 575 37,000  Level Denver Center
Wed 04:55:11 PM 40.8233 -99.9197 64° Northeast 504 580 37,000  Level Denver Center
Wed 04:56:13 PM 40.8806 -99.7631 64° Northeast 504 580 37,000  Level Denver Center
Wed 04:57:15 PM 40.9406 -99.5953 65° Northeast 505 581 37,000  Level Denver Center
Wed 04:58:17 PM 41.0014 -99.4272 64° Northeast 505 581 37,000  Level Denver Center
Wed 04:59:19 PM 41.0731 -99.2242 65° Northeast 506 582 37,000  Level Denver Center
Wed 05:05:15 PM 41.3280 -98.1650 65° Northeast 511 588 37,000  Level FlightAware ADS-B
Wed 05:05:52 PM 41.3460 -98.0520 78° East 511 588 37,000  Level FlightAware ADS-B
Wed 05:06:27 PM 41.3620 -97.9470 78° East 512 589 37,000  Level FlightAware ADS-B
Wed 05:07:06 PM 41.3800 -97.8450 77° East 512 589 37,000  Level FlightAware ADS-B
Wed 05:07:42 PM 41.4000 -97.7130 79° East 514 592 37,000  Level FlightAware ADS-B
Wed 05:08:13 PM 41.4150 -97.6200 78° East 515 593 37,000  Level FlightAware ADS-B
Wed 05:08:54 PM 41.4340 -97.4950 78° East 515 593 37,000  Level FlightAware ADS-B
Wed 05:09:27 PM 41.4510 -97.3870 78° East 516 594 37,000  Level FlightAware ADS-B
Wed 05:10:01 PM 41.4680 -97.2800 78° East 517 595 37,000  Level FlightAware ADS-B
Wed 05:10:40 PM 41.4860 -97.1580 79° East 518 596 37,000  Level FlightAware ADS-B
Wed 05:11:06 PM 41.4990 -97.0770 78° East 518 596 37,000  Level FlightAware ADS-B
Wed 05:11:54 PM 41.5210 -96.9290 79° East 519 597 37,000  Level FlightAware ADS-B
Wed 05:12:13 PM 41.5305 -96.8668 78° East 520 598 37,000  Level FlightAware ADS-B
Wed 05:13:03 PM 41.5540 -96.7100 79° East 519 597 37,000  Level FlightAware ADS-B
Wed 05:13:37 PM 41.5690 -96.6060 79° East 520 598 37,000  Level FlightAware ADS-B
Wed 05:13:51 PM 41.5751 -96.5664 78° East 522 601 37,000  Level FlightAware ADS-B
Wed 05:14:51 PM 41.6040 -96.3720 79° East 523 602 37,000  Level FlightAware ADS-B
Wed 05:15:22 PM 41.6180 -96.2750 79° East 524 603 37,000  Level FlightAware ADS-B
Wed 05:15:59 PM 41.6350 -96.1560 79° East 525 604 37,000  Level FlightAware ADS-B
Wed 05:16:35 PM 41.6510 -96.0410 79° East 526 605 37,000  Level FlightAware ADS-B
Wed 05:17:08 PM 41.6660 -95.9360 79° East 527 606 37,000  Level FlightAware ADS-B
Wed 05:17:51 PM 41.6860 -95.7960 79° East 527 606 37,000  Level FlightAware ADS-B
Wed 05:18:25 PM 41.7010 -95.6900 79° East 527 606 37,000  Level FlightAware ADS-B
Wed 05:19:01 PM 41.7170 -95.5750 79° East 528 608 37,000  Level FlightAware ADS-B
Wed 05:19:34 PM 41.7310 -95.4670 80° East 530 610 37,000  Level FlightAware ADS-B
Wed 05:20:08 PM 41.7460 -95.3590 79° East 531 611 37,000  Level FlightAware ADS-B
Wed 05:20:47 PM 41.7630 -95.2320 80° East 531 611 37,000  Level FlightAware ADS-B
Wed 05:21:22 PM 41.7780 -95.1190 80° East 532 612 37,000  Level FlightAware ADS-B
Wed 05:21:59 PM 41.7950 -94.9980 79° East 533 613 37,000  Level FlightAware ADS-B
Wed 05:22:31 PM 41.8080 -94.8950 80° East 534 615 37,000  Level FlightAware ADS-B
Wed 05:23:08 PM 41.8240 -94.7740 80° East 533 613 37,000  Level FlightAware ADS-B
Wed 05:23:38 PM 41.8370 -94.6750 80° East 533 613 37,000  Level FlightAware ADS-B
Wed 05:24:17 PM 41.8530 -94.5540 80° East 533 613 37,000  Level FlightAware ADS-B
Wed 05:24:53 PM 41.8680 -94.4350 80° East 534 615 37,000  Level FlightAware ADS-B
Wed 05:25:29 PM 41.8830 -94.3160 80° East 535 616 37,000  Level FlightAware ADS-B
Wed 05:26:00 PM 41.8960 -94.2150 80° East 536 617 37,000  Level FlightAware ADS-B
Wed 05:26:34 PM 41.9095 -94.1043 81° East 536 617 37,000  Level FlightAware ADS-B
Wed 05:27:08 PM 41.9240 -93.9900 80° East 537 618 37,000  Level FlightAware ADS-B
Wed 05:27:39 PM 41.9168 -94.0457 260° West 537 618 37,000  Level FlightAware ADS-B
Wed 05:28:09 PM 41.9480 -93.7911 81° East 537 618 37,000  Level FlightAware ADS-B
Wed 05:28:57 PM 41.9670 -93.6350 81° East 537 618 37,000  Level FlightAware ADS-B
Wed 05:29:25 PM 41.9777 -93.5451 81° East 539 620 37,000  Level FlightAware ADS-B
Wed 05:30:06 PM 41.9940 -93.4050 81° East 540 621 37,000  Level FlightAware ADS-B
Wed 05:30:35 PM 41.9871 -93.4655 261° West 540 621 37,000  Level FlightAware ADS-B
Wed 05:31:18 PM 42.0220 -93.1670 81° East 541 623 37,000  Level FlightAware ADS-B
Wed 05:31:54 PM 42.0360 -93.0480 81° East 542 624 37,000  Level FlightAware ADS-B
Wed 05:32:24 PM 42.0470 -92.9470 82° East 542 624 37,000  Level FlightAware ADS-B
Wed 05:33:02 PM 42.0620 -92.8220 81° East 543 625 37,000  Level FlightAware ADS-B
Wed 05:33:37 PM 42.0750 -92.7050 81° East 543 625 37,000  Level FlightAware ADS-B
Wed 05:34:14 PM 42.0880 -92.5840 82° East 542 624 37,000  Level FlightAware ADS-B
Wed 05:34:46 PM 42.1000 -92.4750 82° East 542 624 37,000  Level FlightAware ADS-B
Wed 05:35:24 PM 42.1140 -92.3460 82° East 542 624 37,000  Level FlightAware ADS-B
Wed 05:35:55 PM 42.1250 -92.2440 82° East 541 623 37,000  Level FlightAware ADS-B
Wed 05:36:06 PM 42.1185 -92.3062 262° West 541 623 37,000  Level FlightAware ADS-B (LPVM)
Wed 05:36:37 PM 42.1404 -92.1024 82° East 539 620 37,000  Level FlightAware ADS-B (LPVM)
Wed 05:37:07 PM 42.1509 -92.0026 82° East 538 619 37,000  Level FlightAware ADS-B (LPVM)
Wed 05:37:38 PM 42.1615 -91.9013 82° East 538 619 37,000  Level FlightAware ADS-B (LPVM)
Wed 05:38:12 PM 42.1730 -91.7920 82° East 537 618 37,000  Level FlightAware ADS-B
Wed 05:38:49 PM 42.1850 -91.6710 82° East 535 616 37,000  Level FlightAware ADS-B
Wed 05:38:55 PM 42.1877 -91.6472 81° East 536 617 37,000  Level FlightAware ADS-B (LPVM)
Wed 05:39:27 PM 42.1980 -91.5410 83° East 535 616 37,000  Level FlightAware ADS-B
Wed 05:40:02 PM 42.2100 -91.4280 82° East 536 617 37,000  Level FlightAware ADS-B
Wed 05:40:36 PM 42.2210 -91.3130 83° East 537 618 37,000  Level FlightAware ADS-B
Wed 05:41:14 PM 42.2340 -91.1890 82° East 538 619 37,000  Level FlightAware ADS-B
Wed 05:41:45 PM 42.2430 -91.0910 83° East 539 620 37,000  Level FlightAware ADS-B
Wed 05:42:24 PM 42.2560 -90.9600 82° East 540 621 37,000  Level FlightAware ADS-B
Wed 05:43:05 PM 42.2690 -90.8240 83° East 542 624 37,000  Level FlightAware ADS-B
Wed 05:43:40 PM 42.2800 -90.7050 83° East 544 626 37,000  Level FlightAware ADS-B
Wed 05:44:13 PM 42.2900 -90.5950 83° East 545 627 37,000 269 Level FlightAware ADS-B
Wed 05:44:47 PM 42.3010 -90.4790 83° East 543 625 37,300 609 Climbing FlightAware ADS-B
Wed 05:45:22 PM 42.3100 -90.3730 83° East 545 627 37,700 761 Climbing FlightAware ADS-B
Wed 05:45:58 PM 42.3220 -90.2410 83° East 546 628 38,200 783 Climbing FlightAware ADS-B
Wed 05:46:31 PM 42.3320 -90.1350 83° East 547 629 38,600 667 Climbing FlightAware ADS-B
Wed 05:47:10 PM 42.3440 -89.9960 83° East 549 632 39,000 329 Climbing FlightAware ADS-B
Wed 05:47:44 PM 42.3540 -89.8800 83° East 548 631 39,000  Level FlightAware ADS-B
Wed 05:48:25 PM 42.3660 -89.7430 83° East 544 626 39,000  Level FlightAware ADS-B
Wed 05:49:01 PM 42.3760 -89.6230 84° East 540 621 39,000  Level FlightAware ADS-B
Wed 05:49:33 PM 42.3850 -89.5090 84° East 541 623 39,000  Level FlightAware ADS-B
Wed 05:50:09 PM 42.3950 -89.3900 83° East 540 621 39,000  Level FlightAware ADS-B
Wed 05:50:48 PM 42.4050 -89.2640 84° East 539 620 39,000  Level FlightAware ADS-B
Wed 05:51:18 PM 42.4130 -89.1660 84° East 538 619 39,000  Level FlightAware ADS-B
Wed 05:51:55 PM 42.4230 -89.0360 84° East 537 618 39,000  Level FlightAware ADS-B
Wed 05:52:30 PM 42.4320 -88.9210 84° East 536 617 39,000  Level FlightAware ADS-B
Wed 05:53:08 PM 42.4420 -88.7960 84° East 536 617 39,000  Level FlightAware ADS-B
Wed 05:53:39 PM 42.4500 -88.6940 84° East 536 617 39,000  Level FlightAware ADS-B
Wed 05:54:16 PM 42.4590 -88.5710 84° East 537 618 39,000  Level FlightAware ADS-B
Wed 05:54:48 PM 42.4670 -88.4640 84° East 538 619 39,000  Level FlightAware ADS-B
Wed 05:55:27 PM 42.4770 -88.3300 84° East 539 620 39,000  Level FlightAware ADS-B
Wed 05:56:00 PM 42.4850 -88.2170 84° East 540 621 39,000  Level FlightAware ADS-B
Wed 05:56:37 PM 42.4930 -88.0940 85° East 540 621 39,000  Level FlightAware ADS-B
Wed 05:57:11 PM 42.4990 -87.9770 86° East 540 621 39,000  Level FlightAware ADS-B
Wed 05:57:45 PM 42.5000 -87.8650 89° East 540 621 39,000  Level FlightAware ADS-B
Wed 05:58:20 PM 42.5000 -87.7450 90° East 540 621 39,000  Level FlightAware ADS-B
Wed 05:58:55 PM 42.5000 -87.6280 90° East 541 623 39,000  Level FlightAware ADS-B
Wed 05:59:28 PM 42.4990 -87.5170 91° East 542 624 39,000  Level FlightAware ADS-B
Wed 06:00:01 PM 42.4990 -87.4160 90° East 542 624 39,000  Level FlightAware ADS-B
Wed 06:00:39 PM 42.4980 -87.2760 91° East 543 625 39,000  Level FlightAware ADS-B
Wed 06:01:16 PM 42.4970 -87.1540 91° East 543 625 39,000  Level FlightAware ADS-B
Wed 06:01:53 PM 42.4960 -87.0260 91° East 544 626 39,000  Level FlightAware ADS-B
Wed 06:02:21 PM 42.4950 -86.9440 91° East 544 626 39,000  Level FlightAware ADS-B
Wed 06:02:59 PM 42.4940 -86.8020 90° East 545 627 39,000  Level FlightAware ADS-B
Wed 06:03:32 PM 42.4930 -86.6910 91° East 546 628 39,000  Level FlightAware ADS-B
Wed 06:04:17 PM 42.4910 -86.5350 91° East 549 632 39,000  Level FlightAware ADS-B
Wed 06:04:52 PM 42.4900 -86.4140 91° East 552 635 39,000  Level FlightAware ADS-B
Wed 06:05:26 PM 42.4880 -86.3000 91° East 555 639 39,000  Level FlightAware ADS-B
Wed 06:06:01 PM 42.4860 -86.1740 91° East 558 642 39,000  Level FlightAware ADS-B
Wed 06:06:37 PM 42.4840 -86.0500 91° East 562 647 39,000  Level FlightAware ADS-B
Wed 06:07:12 PM 42.4820 -85.9310 91° East 564 649 39,000  Level FlightAware ADS-B
Wed 06:07:43 PM 42.4800 -85.8240 91° East 567 652 39,000  Level FlightAware ADS-B
Wed 06:08:22 PM 42.4770 -85.6840 92° East 569 655 39,000  Level FlightAware ADS-B
Wed 06:08:59 PM 42.4750 -85.5530 91° East 570 656 39,000  Level FlightAware ADS-B
Wed 06:09:32 PM 42.4720 -85.4310 92° East 571 657 39,000  Level FlightAware ADS-B
Wed 06:10:09 PM 42.4690 -85.3000 92° East 571 657 39,000  Level FlightAware ADS-B
Wed 06:10:43 PM 42.4660 -85.1750 92° East 570 656 39,000  Level FlightAware ADS-B
Wed 06:11:03 PM 42.4640 -85.1060 92° East 570 656 39,000  Level FlightAware ADS-B
Wed 06:11:50 PM 42.4600 -84.9360 92° East 570 656 39,000  Level FlightAware ADS-B
Wed 06:12:23 PM 42.4570 -84.8190 92° East 569 655 39,000  Level FlightAware ADS-B
Wed 06:13:00 PM 42.4530 -84.6940 92° East 569 655 39,000  Level FlightAware ADS-B
Wed 06:13:34 PM 42.4500 -84.5690 92° East 568 654 39,000  Level FlightAware ADS-B
Wed 06:14:05 PM 42.4460 -84.4640 93° East 567 652 39,000  Level FlightAware ADS-B
Wed 06:14:44 PM 42.4420 -84.3210 92° East 567 652 39,000  Level FlightAware ADS-B
Wed 06:15:16 PM 42.4380 -84.2080 93° East 567 652 39,000  Level FlightAware ADS-B
Wed 06:15:52 PM 42.4340 -84.0850 92° East 567 652 39,000  Level FlightAware ADS-B
Wed 06:16:28 PM 42.4300 -83.9590 92° East 567 652 39,000  Level FlightAware ADS-B
Wed 06:17:05 PM 42.4250 -83.8230 93° East 566 651 39,000  Level FlightAware ADS-B
Wed 06:17:46 PM 42.4200 -83.6840 93° East 566 651 39,000  Level FlightAware ADS-B
Wed 06:18:19 PM 42.4150 -83.5640 93° East 566 651 39,000  Level FlightAware ADS-B
Wed 06:18:53 PM 42.4110 -83.4440 93° East 565 650 39,000  Level FlightAware ADS-B
Wed 06:19:29 PM 42.4060 -83.3210 93° East 565 650 39,000  Level FlightAware ADS-B
Wed 06:20:05 PM 42.4000 -83.1890 93° East 566 651 39,000  Level FlightAware ADS-B
Wed 06:20:42 PM 42.3950 -83.0570 93° East 565 650 39,000  Level FlightAware ADS-B
Wed 06:21:12 PM 42.3900 -82.9520 94° East 565 650 39,000  Level FlightAware ADS-B
Wed 06:21:49 PM 42.3850 -82.8290 93° East 566 651 39,000  Level FlightAware ADS-B
Wed 06:22:25 PM 42.3790 -82.6990 94° East 567 652 39,000  Level FlightAware ADS-B
Wed 06:23:03 PM 42.3730 -82.5610 93° East 567 652 39,000  Level FlightAware ADS-B
Wed 06:23:34 PM 42.3690 -82.4480 93° East 569 655 39,000  Level FlightAware ADS-B
Wed 06:24:09 PM 42.3640 -82.3240 93° East 570 656 39,000  Level FlightAware ADS-B
Wed 06:24:47 PM 42.3590 -82.1920 93° East 572 658 39,000  Level FlightAware ADS-B
Wed 06:25:20 PM 42.3540 -82.0700 93° East 573 659 39,000  Level FlightAware ADS-B
Wed 06:25:53 PM 42.3490 -81.9530 93° East 576 663 39,000  Level FlightAware ADS-B
Wed 06:26:31 PM 42.3430 -81.8310 94° East 578 665 39,000  Level FlightAware ADS-B
Wed 06:27:04 PM 42.3370 -81.7080 94° East 579 666 39,000  Level FlightAware ADS-B
Wed 06:27:35 PM 42.3320 -81.5940 93° East 581 669 39,000  Level FlightAware ADS-B
Wed 06:28:17 PM 42.3250 -81.4380 93° East 582 670 39,000  Level FlightAware ADS-B
Wed 06:28:49 PM 42.3190 -81.3220 94° East 583 671 39,000  Level FlightAware ADS-B
Wed 06:29:27 PM 42.3120 -81.1870 94° East 583 671 39,000  Level FlightAware ADS-B
Wed 06:30:03 PM 42.3050 -81.0520 94° East 585 673 39,000  Level FlightAware ADS-B
Wed 06:30:35 PM 42.2990 -80.9400 94° East 585 673 39,000  Level FlightAware ADS-B
Wed 06:31:11 PM 42.2920 -80.8040 94° East 586 674 39,000  Level FlightAware ADS-B
Wed 06:31:47 PM 42.2850 -80.6770 94° East 586 674 39,000  Level FlightAware ADS-B
Wed 06:32:22 PM 42.2780 -80.5430 94° East 587 676 39,000  Level FlightAware ADS-B
Wed 06:32:55 PM 42.2710 -80.4230 94° East 586 674 39,000  Level FlightAware ADS-B
Wed 06:33:27 PM 42.2640 -80.3070 95° East 587 676 39,000  Level FlightAware ADS-B
Wed 06:34:08 PM 42.2550 -80.1550 95° East 585 673 39,000  Level FlightAware ADS-B
Wed 06:34:39 PM 42.2490 -80.0460 94° East 585 673 39,000  Level FlightAware ADS-B
Wed 06:35:15 PM 42.2410 -79.9150 95° East 586 674 39,000  Level FlightAware ADS-B
Wed 06:35:52 PM 42.2320 -79.7780 95° East 586 674 39,000  Level FlightAware ADS-B
Wed 06:36:26 PM 42.2240 -79.6570 95° East 585 673 39,000  Level FlightAware ADS-B
Wed 06:36:57 PM 42.2170 -79.5450 95° East 583 671 39,000  Level FlightAware ADS-B
Wed 06:37:36 PM 42.2080 -79.4010 95° East 582 670 39,000  Level FlightAware ADS-B
Wed 06:38:13 PM 42.1990 -79.2720 95° East 580 667 39,000  Level FlightAware ADS-B
Wed 06:38:43 PM 42.1900 -79.1640 96° East 578 665 39,000  Level FlightAware ADS-B
Wed 06:39:18 PM 42.1700 -79.0470 103° East 575 662 39,000  Level FlightAware ADS-B
Wed 06:39:53 PM 42.1410 -78.9300 108° East 572 658 39,000  Level FlightAware ADS-B
Wed 06:40:30 PM 42.1090 -78.8030 109° East 571 657 39,000  Level FlightAware ADS-B
Wed 06:41:05 PM 42.0800 -78.6880 109° East 569 655 39,000  Level FlightAware ADS-B
Wed 06:41:41 PM 42.0500 -78.5690 109° East 569 655 39,000  Level FlightAware ADS-B
Wed 06:42:17 PM 42.0180 -78.4420 109° East 567 652 39,000  Level FlightAware ADS-B
Wed 06:42:49 PM 41.9900 -78.3350 109° East 567 652 39,000  Level FlightAware ADS-B
Wed 06:43:27 PM 41.9570 -78.2080 109° East 567 652 39,000  Level FlightAware ADS-B
Wed 06:43:59 PM 41.9300 -78.1010 109° East 566 651 39,000  Level FlightAware ADS-B
Wed 06:44:37 PM 41.8970 -77.9760 109° East 566 651 39,000  Level FlightAware ADS-B
Wed 06:45:09 PM 41.8690 -77.8690 109° East 565 650 39,000  Level FlightAware ADS-B
Wed 06:45:45 PM 41.8380 -77.7500 109° East 566 651 39,000  Level FlightAware ADS-B
Wed 06:46:23 PM 41.8060 -77.6270 109° East 567 652 39,000  Level FlightAware ADS-B
Wed 06:46:55 PM 41.7780 -77.5220 110° East 567 652 39,000  Level FlightAware ADS-B
Wed 06:47:31 PM 41.7460 -77.4030 110° East 566 651 39,000  Level FlightAware ADS-B
Wed 06:48:07 PM 41.7140 -77.2830 110° East 564 649 39,000  Level FlightAware ADS-B
Wed 06:48:43 PM 41.6820 -77.1650 110° East 564 649 39,000  Level FlightAware ADS-B
Wed 06:49:15 PM 41.6540 -77.0590 109° East 564 649 39,000  Level FlightAware ADS-B
Wed 06:49:51 PM 41.6230 -76.9440 110° East 564 649 39,000 -85 Level FlightAware ADS-B
Wed 06:50:26 PM 41.5910 -76.8290 110° East 566 651 38,900 -609 Descending FlightAware ADS-B
Wed 06:51:00 PM 41.5600 -76.7160 110° East 575 662 38,300 -1,217 Descending FlightAware ADS-B
Wed 06:51:35 PM 41.5280 -76.6000 110° East 574 661 37,500 -1,629 Descending FlightAware ADS-B
Wed 06:52:10 PM 41.4970 -76.4860 110° East 574 661 36,400 -2,113 Descending FlightAware ADS-B
Wed 06:52:46 PM 41.4640 -76.3670 110° East 573 659 35,000 -2,314 Descending FlightAware ADS-B
Wed 06:53:20 PM 41.4340 -76.2590 110° East 562 647 33,700 -2,382 Descending FlightAware ADS-B
Wed 06:53:54 PM 41.4020 -76.1440 110° East 552 635 32,300 -2,366 Descending FlightAware ADS-B
Wed 06:54:31 PM 41.3700 -76.0320 111° Southeast 539 620 30,900 -2,197 Descending FlightAware ADS-B
Wed 06:55:05 PM 41.3420 -75.9340 111° Southeast 531 611 29,700 -2,400 Descending FlightAware ADS-B
Wed 06:55:41 PM 41.3090 -75.8160 110° East 522 601 28,100 -2,545 Descending FlightAware ADS-B
Wed 06:56:11 PM 41.2830 -75.7260 111° Southeast 522 601 26,900 -2,282 Descending FlightAware ADS-B
Wed 06:56:52 PM 41.2450 -75.6060 113° Southeast 507 583 25,400 -1,923 Descending FlightAware ADS-B
Wed 06:57:29 PM 41.2110 -75.5030 114° Southeast 495 570 24,400 -1,658 Descending FlightAware ADS-B
Wed 06:58:08 PM 41.1740 -75.3930 114° Southeast 484 557 23,300 -1,167 Descending FlightAware ADS-B
Wed 06:58:41 PM 41.1450 -75.3070 114° Southeast 458 527 23,000 -257 Descending FlightAware ADS-B
Wed 06:59:18 PM 41.1150 -75.2190 114° Southeast 414 476 23,000 -85 Level FlightAware ADS-B
Wed 06:59:52 PM 41.0890 -75.1410 114° Southeast 401 461 22,900 -441 Descending FlightAware ADS-B
Wed 07:00:26 PM 41.0630 -75.0650 114° Southeast 399 459 22,500 -696 Descending FlightAware ADS-B
Wed 07:01:01 PM 41.0380 -74.9910 114° Southeast 390 449 22,100 -649 Descending FlightAware ADS-B
Wed 07:01:40 PM 41.0090 -74.9060 114° Southeast 385 443 21,700 -696 Descending FlightAware ADS-B
Wed 07:02:10 PM 40.9930 -74.8400 108° East 391 450 21,300 -700 Descending FlightAware ADS-B
Wed 07:02:40 PM 40.9890 -74.7760 95° East 397 457 21,000 -529 Descending FlightAware ADS-B
Wed 07:02:44 PM 40.9910 -74.7530 83° East 397 457 21,000  Level FlightAware ADS-B
Wed 07:03:08 PM 41.0060 -74.7000 69° East 396 456 21,000  Level FlightAware ADS-B
Wed 07:03:36 PM 41.0230 -74.6350 71° East 395 455 21,000  Level FlightAware ADS-B
Wed 07:04:12 PM 41.0220 -74.5540 91° East 391 450 21,000 -211 Level FlightAware ADS-B
Wed 07:04:33 PM 41.0140 -74.5070 103° East 387 445 20,800 -778 Descending FlightAware ADS-B
Wed 07:05:06 PM 40.9950 -74.4340 109° East 386 444 20,300 -917 Descending FlightAware ADS-B
Wed 07:05:45 PM 40.9710 -74.3450 110° East 382 440 19,700 -930 Descending FlightAware ADS-B
Wed 07:06:17 PM 40.9510 -74.2710 110° East 379 436 19,200 -636 Descending FlightAware ADS-B
Wed 07:06:51 PM 40.9310 -74.1960 109° East 372 428 19,000 -169 Descending FlightAware ADS-B
Wed 07:07:28 PM 40.9070 -74.1210 113° Southeast 368 423 19,000  Level FlightAware ADS-B
Wed 07:07:36 PM 40.8992 -74.1057 124° Southeast 365 420 19,000  Level FlightAware ADS-B
Wed 07:07:40 PM 40.8947 -74.0984 129° Southeast 362 417 19,000  Level FlightAware ADS-B
Wed 07:07:50 PM 40.8828 -74.0844 138° Southeast 355 409 19,000  Level FlightAware ADS-B
Wed 07:07:59 PM 40.8703 -74.0741 148° Southeast 348 400 19,000 -600 Level FlightAware ADS-B
Wed 07:08:20 PM 40.8398 -74.0580 158° South 348 400 18,700 -968 Descending FlightAware ADS-B (KSNC)
Wed 07:08:30 PM 40.8239 -74.0507 161° South 349 402 18,500 -1,309 Descending FlightAware ADS-B
Wed 07:09:15 PM 40.7560 -74.0190 161° South 338 389 17,500 -1,552 Descending FlightAware ADS-B
Wed 07:09:28 PM 40.7374 -74.0103 161° South 339 390 17,000 -1,714 Descending FlightAware ADS-B (KSNC)
Wed 07:09:36 PM 40.7258 -74.0048 160° South 341 392 16,900 -1,778 Descending FlightAware ADS-B
Wed 07:10:22 PM 40.6587 -73.9729 160° South 326 375 15,400 -1,852 Descending FlightAware ADS-B (KSNC)
Wed 07:10:57 PM 40.6100 -73.9490 160° South 317 365 14,400 -1,800 Descending FlightAware ADS-B
Wed 07:11:32 PM 40.5620 -73.9250 159° South 312 359 13,300 -1,739 Descending FlightAware ADS-B
Wed 07:12:06 PM 40.5180 -73.9050 161° South 302 348 12,400 -1,714 Descending FlightAware ADS-B
Wed 07:12:42 PM 40.4730 -73.8850 161° South 293 337 11,300 -2,000 Descending FlightAware ADS-B
Wed 07:13:18 PM 40.4250 -73.8650 162° South 292 336 10,000 -2,143 Descending FlightAware ADS-B
Wed 07:13:38 PM 40.3990 -73.8550 164° South 289 333 9,300 -1,902 Descending FlightAware ADS-B
Wed 07:13:59 PM 40.3710 -73.8440 163° South 285 328 8,700 -1,600 Descending FlightAware ADS-B
Wed 07:14:08 PM 40.3620 -73.8380 153° Southeast 287 330 8,500 -1,059 Descending FlightAware ADS-B
Wed 07:14:16 PM 40.3550 -73.8310 143° Southeast 287 330 8,400 -900 Descending FlightAware ADS-B
Wed 07:14:28 PM 40.3470 -73.8200 134° Southeast 288 331 8,200 -1,043 Descending FlightAware ADS-B
Wed 07:14:39 PM 40.3350 -73.7970 124° Southeast 290 334 8,000 -529 Descending FlightAware ADS-B
Wed 07:15:02 PM 40.3170 -73.7630 125° Southeast 292 336 7,900 -128 Descending FlightAware ADS-B
Wed 07:15:26 PM 40.3020 -73.7260 118° Southeast 296 341 7,900 171 Level FlightAware ADS-B
Wed 07:15:37 PM 40.3010 -73.7060 94° East 298 343 8,000 316 Climbing FlightAware ADS-B
Wed 07:15:45 PM 40.3030 -73.6910 80° East 300 345 8,000 -286 Level FlightAware ADS-B
Wed 07:15:58 PM 40.3110 -73.6690 64° Northeast 301 346 7,900  Descending FlightAware ADS-B
Wed 07:16:20 PM 40.3330 -73.6450 40° Northeast 295 339 8,000  Climbing FlightAware ADS-B
Wed 07:16:40 PM 40.3570 -73.6280 28° Northeast 296 341 7,900 -171 Descending FlightAware ADS-B
Wed 07:16:55 PM 40.3760 -73.6140 29° Northeast 295 339 7,900  Level FlightAware ADS-B
Wed 07:17:12 PM 40.3970 -73.5990 29° Northeast 294 338 7,900  Level FlightAware ADS-B
Wed 07:17:36 PM 40.4230 -73.5810 28° Northeast 293 337 7,900  Level FlightAware ADS-B
Wed 07:18:00 PM 40.4510 -73.5610 29° Northeast 296 341 7,900  Level FlightAware ADS-B
Wed 07:18:16 PM 40.4710 -73.5460 30° Northeast 294 338 7,900  Level FlightAware ADS-B
Wed 07:18:37 PM 40.4960 -73.5290 27° Northeast 293 337 7,900  Level FlightAware ADS-B
Wed 07:19:00 PM 40.5250 -73.5080 29° Northeast 294 338 7,900 -279 Level FlightAware ADS-B
Wed 07:19:20 PM 40.5480 -73.4910 29° Northeast 296 341 7,700 -818 Descending FlightAware ADS-B
Wed 07:19:44 PM 40.5780 -73.4700 28° Northeast 294 338 7,300 -1,091 Descending FlightAware ADS-B
Wed 07:20:04 PM 40.6020 -73.4530 28° Northeast 293 337 6,900 -1,050 Descending FlightAware ADS-B
Wed 07:20:24 PM 40.6260 -73.4380 25° Northeast 287 330 6,600 -1,071 Descending FlightAware ADS-B
Wed 07:20:32 PM 40.6370 -73.4350 12° North 282 325 6,400 -1,000 Descending FlightAware ADS-B
Wed 07:20:54 PM 40.6650 -73.4280 11° North 273 314 6,100 -1,024 Descending FlightAware ADS-B
Wed 07:21:13 PM 40.6890 -73.4230 North 266 306 5,700 -1,000 Descending FlightAware ADS-B
Wed 07:21:48 PM 40.7270 -73.4330 349° North 241 277 5,200 -1,017 Descending FlightAware ADS-B
Wed 07:22:12 PM 40.7500 -73.4510 329° Northwest 232 267 4,700 -1,091 Descending FlightAware ADS-B
Wed 07:22:21 PM 40.7570 -73.4570 327° Northwest 229 264 4,600 -900 Descending FlightAware ADS-B
Wed 07:22:32 PM 40.7650 -73.4690 311° West 226 260 4,400 -968 Descending FlightAware ADS-B
Wed 07:22:52 PM 40.7780 -73.4900 309° West 226 260 4,100 -732 Descending FlightAware ADS-B
Wed 07:23:13 PM 40.7900 -73.5150 302° West 222 255 3,900 -750 Descending FlightAware ADS-B
Wed 07:23:32 PM 40.7960 -73.5390 288° West 222 255 3,600 -878 Descending FlightAware ADS-B
Wed 07:23:54 PM 40.8030 -73.5680 288° West 222 255 3,300 -800 Descending FlightAware ADS-B
Wed 07:24:02 PM 40.8040 -73.5780 278° West 220 253 3,200 -649 Descending FlightAware ADS-B
Wed 07:24:31 PM 40.7980 -73.6160 258° West 215 247 2,900 -360 Descending FlightAware ADS-B
Wed 07:24:52 PM 40.7930 -73.6400 255° West 216 249 2,900  Level FlightAware ADS-B
Wed 07:25:04 PM 40.7900 -73.6560 256° West 216 249 2,900  Level FlightAware ADS-B
Wed 07:25:12 PM 40.7840 -73.6660 232° Southwest 217 250 2,900 375 Level FlightAware ADS-B
Wed 07:25:20 PM 40.7780 -73.6710 212° Southwest 215 247 3,000  Climbing FlightAware ADS-B
Wed 07:25:30 PM 40.7700 -73.6790 217° Southwest 208 239 2,900 -882 Descending FlightAware ADS-B
Wed 07:25:54 PM 40.7500 -73.6940 210° Southwest 204 235 2,500 -1,200 Descending FlightAware ADS-B
Wed 07:26:15 PM 40.7310 -73.7060 206° Southwest 203 234 2,000 -1,143 Descending FlightAware ADS-B
Wed 07:26:36 PM 40.7150 -73.7180 210° Southwest 187 215 1,700 -878 Descending FlightAware ADS-B
Wed 07:26:56 PM 40.7010 -73.7280 208° Southwest 168 193 1,400 -900 Descending FlightAware ADS-B
Wed 07:27:16 PM 40.6880 -73.7370 208° Southwest 149 171 1,100 -818 Descending FlightAware ADS-B
Wed 07:27:40 PM 40.6740 -73.7470 208° Southwest 133 153 800 -783 Descending FlightAware ADS-B
Wed 07:28:02 PM 40.6620 -73.7550 207° Southwest 130 150 500 -857 Descending FlightAware ADS-B
Wed 07:28:22 PM 40.6520 -73.7620 208° Southwest 131 151 200 -900 Descending FlightAware ADS-B
Wed 07:28:41 PM 40.6420 -73.7700 211° Southwest 127 146 -632 Descending FlightAware ADS-B
Wed 07:28:56 PM 40.6360 -73.7750 212° Southwest 120 138  Level FlightAware ADS-B

Login

Don't have an account? Register now (free) for customized features, flight alerts, and more!